sensor_id;sensor_type;location;lat;lon;timestamp;pressure;altitude;pressure_sealevel;temperature;humidity
22647;BME280;11490;42.726;23.268;2022-12-31T00:01:41;96231.91;;;5.63;100.00
22647;BME280;11490;42.726;23.268;2022-12-31T00:04:06;96247.59;;;5.79;100.00
22647;BME280;11490;42.726;23.268;2022-12-31T00:06:33;96251.94;;;5.95;100.00
22647;BME280;11490;42.726;23.268;2022-12-31T00:09:02;96245.16;;;5.93;100.00
22647;BME280;11490;42.726;23.268;2022-12-31T00:11:29;96233.63;;;5.86;100.00
22647;BME280;11490;42.726;23.268;2022-12-31T00:13:54;96243.69;;;5.90;100.00
22647;BME280;11490;42.726;23.268;2022-12-31T00:16:29;96241.03;;;6.05;100.00
22647;BME280;11490;42.726;23.268;2022-12-31T00:18:56;96237.84;;;6.09;100.00
22647;BME280;11490;42.726;23.268;2022-12-31T00:21:26;96248.47;;;5.95;100.00
22647;BME280;11490;42.726;23.268;2022-12-31T00:23:52;96246.50;;;5.89;100.00
22647;BME280;11490;42.726;23.268;2022-12-31T00:26:20;96259.03;;;5.95;100.00
22647;BME280;11490;42.726;23.268;2022-12-31T00:28:47;96254.94;;;5.92;100.00
22647;BME280;11490;42.726;23.268;2022-12-31T00:31:17;96263.50;;;5.79;100.00
22647;BME280;11490;42.726;23.268;2022-12-31T00:33:43;96265.78;;;5.97;100.00
22647;BME280;11490;42.726;23.268;2022-12-31T00:36:14;96274.47;;;6.06;100.00
22647;BME280;11490;42.726;23.268;2022-12-31T00:38:41;96272.47;;;6.08;100.00
22647;BME280;11490;42.726;23.268;2022-12-31T00:41:07;96270.63;;;5.94;100.00
22647;BME280;11490;42.726;23.268;2022-12-31T00:43:33;96271.56;;;6.01;100.00
22647;BME280;11490;42.726;23.268;2022-12-31T00:45:59;96282.59;;;5.90;100.00
22647;BME280;11490;42.726;23.268;2022-12-31T00:48:25;96287.34;;;6.09;100.00
22647;BME280;11490;42.726;23.268;2022-12-31T00:50:51;96291.25;;;6.13;100.00
22647;BME280;11490;42.726;23.268;2022-12-31T00:53:16;96275.38;;;6.13;100.00
22647;BME280;11490;42.726;23.268;2022-12-31T00:55:42;96288.53;;;6.06;100.00
22647;BME280;11490;42.726;23.268;2022-12-31T00:58:07;96276.66;;;6.02;100.00
22647;BME280;11490;42.726;23.268;2022-12-31T01:00:33;96280.13;;;6.03;100.00
22647;BME280;11490;42.726;23.268;2022-12-31T01:02:59;96283.78;;;6.02;100.00
22647;BME280;11490;42.726;23.268;2022-12-31T01:05:25;96303.28;;;5.71;100.00
22647;BME280;11490;42.726;23.268;2022-12-31T01:07:50;96293.59;;;5.78;100.00
22647;BME280;11490;42.726;23.268;2022-12-31T01:10:16;96305.28;;;5.69;99.80
22647;BME280;11490;42.726;23.268;2022-12-31T01:13:01;96295.41;;;5.63;100.00
22647;BME280;11490;42.726;23.268;2022-12-31T01:15:27;96299.72;;;5.64;100.00
22647;BME280;11490;42.726;23.268;2022-12-31T01:17:52;96302.34;;;5.64;99.23
22647;BME280;11490;42.726;23.268;2022-12-31T01:20:17;96292.06;;;5.32;100.00
22647;BME280;11490;42.726;23.268;2022-12-31T01:22:43;96300.94;;;5.16;100.00
22647;BME280;11490;42.726;23.268;2022-12-31T01:25:08;96290.38;;;4.93;100.00
22647;BME280;11490;42.726;23.268;2022-12-31T01:27:33;96309.75;;;4.86;100.00
22647;BME280;11490;42.726;23.268;2022-12-31T01:29:59;96302.66;;;4.86;100.00
22647;BME280;11490;42.726;23.268;2022-12-31T01:32:24;96304.63;;;5.07;100.00
22647;BME280;11490;42.726;23.268;2022-12-31T01:34:49;96304.59;;;4.92;100.00
22647;BME280;11490;42.726;23.268;2022-12-31T01:37:15;96306.75;;;5.12;100.00
22647;BME280;11490;42.726;23.268;2022-12-31T01:39:40;96301.47;;;5.12;100.00
22647;BME280;11490;42.726;23.268;2022-12-31T01:42:10;96314.69;;;5.12;100.00
22647;BME280;11490;42.726;23.268;2022-12-31T01:47:02;96313.69;;;5.13;100.00
22647;BME280;11490;42.726;23.268;2022-12-31T01:49:38;96315.44;;;5.20;100.00
22647;BME280;11490;42.726;23.268;2022-12-31T01:52:08;96309.22;;;4.90;100.00
22647;BME280;11490;42.726;23.268;2022-12-31T01:54:42;96313.75;;;5.04;100.00
22647;BME280;11490;42.726;23.268;2022-12-31T01:57:09;96320.72;;;4.97;100.00
22647;BME280;11490;42.726;23.268;2022-12-31T01:59:36;96324.19;;;4.75;100.00
22647;BME280;11490;42.726;23.268;2022-12-31T02:02:02;96323.19;;;4.76;100.00
22647;BME280;11490;42.726;23.268;2022-12-31T02:04:28;96322.81;;;4.87;100.00
22647;BME280;11490;42.726;23.268;2022-12-31T02:07:05;96332.84;;;4.92;100.00
22647;BME280;11490;42.726;23.268;2022-12-31T02:09:31;96328.03;;;4.95;100.00
22647;BME280;11490;42.726;23.268;2022-12-31T02:11:58;96315.53;;;4.81;100.00
22647;BME280;11490;42.726;23.268;2022-12-31T02:14:25;96328.38;;;4.61;100.00
22647;BME280;11490;42.726;23.268;2022-12-31T02:26:16;96333.13;;;4.97;100.00
22647;BME280;11490;42.726;23.268;2022-12-31T02:31:38;96339.22;;;4.97;100.00
22647;BME280;11490;42.726;23.268;2022-12-31T02:37:03;96344.56;;;4.89;100.00
22647;BME280;11490;42.726;23.268;2022-12-31T02:39:31;96348.16;;;4.96;100.00
22647;BME280;11490;42.726;23.268;2022-12-31T02:41:58;96353.69;;;4.87;100.00
22647;BME280;11490;42.726;23.268;2022-12-31T02:44:26;96350.84;;;4.88;100.00
22647;BME280;11490;42.726;23.268;2022-12-31T02:57:50;96356.75;;;4.68;100.00
22647;BME280;11490;42.726;23.268;2022-12-31T03:00:17;96349.97;;;4.65;100.00
22647;BME280;11490;42.726;23.268;2022-12-31T03:03:02;96344.44;;;4.83;100.00
22647;BME280;11490;42.726;23.268;2022-12-31T03:05:32;96344.13;;;4.86;100.00
22647;BME280;11490;42.726;23.268;2022-12-31T03:07:58;96347.13;;;4.75;100.00
22647;BME280;11490;42.726;23.268;2022-12-31T03:10:24;96344.63;;;4.81;100.00
22647;BME280;11490;42.726;23.268;2022-12-31T03:12:49;96338.13;;;4.61;100.00
22647;BME280;11490;42.726;23.268;2022-12-31T03:15:24;96335.16;;;4.64;100.00
22647;BME280;11490;42.726;23.268;2022-12-31T03:18:10;96333.53;;;4.55;100.00
22647;BME280;11490;42.726;23.268;2022-12-31T03:23:34;96333.09;;;4.43;100.00
22647;BME280;11490;42.726;23.268;2022-12-31T03:26:01;96326.66;;;4.46;100.00
22647;BME280;11490;42.726;23.268;2022-12-31T03:28:29;96332.56;;;4.56;100.00
22647;BME280;11490;42.726;23.268;2022-12-31T03:30:58;96334.59;;;4.38;100.00
22647;BME280;11490;42.726;23.268;2022-12-31T03:33:24;96342.41;;;4.23;100.00
22647;BME280;11490;42.726;23.268;2022-12-31T03:35:51;96340.44;;;4.25;100.00
22647;BME280;11490;42.726;23.268;2022-12-31T03:38:17;96344.22;;;4.31;100.00
22647;BME280;11490;42.726;23.268;2022-12-31T03:40:46;96340.88;;;4.37;100.00
22647;BME280;11490;42.726;23.268;2022-12-31T03:43:11;96337.13;;;4.31;99.75
22647;BME280;11490;42.726;23.268;2022-12-31T03:45:37;96347.88;;;4.21;99.78
22647;BME280;11490;42.726;23.268;2022-12-31T03:48:04;96343.63;;;4.04;99.53
22647;BME280;11490;42.726;23.268;2022-12-31T03:50:30;96364.41;;;4.07;100.00
22647;BME280;11490;42.726;23.268;2022-12-31T03:52:56;96346.66;;;3.77;100.00
22647;BME280;11490;42.726;23.268;2022-12-31T03:55:21;96347.97;;;3.81;100.00
22647;BME280;11490;42.726;23.268;2022-12-31T03:57:46;96352.59;;;3.87;100.00
22647;BME280;11490;42.726;23.268;2022-12-31T04:00:14;96353.63;;;3.54;100.00
22647;BME280;11490;42.726;23.268;2022-12-31T04:02:40;96345.19;;;3.66;100.00
22647;BME280;11490;42.726;23.268;2022-12-31T04:05:06;96351.25;;;3.83;100.00
22647;BME280;11490;42.726;23.268;2022-12-31T04:07:32;96364.47;;;3.83;100.00
22647;BME280;11490;42.726;23.268;2022-12-31T04:09:57;96352.25;;;3.74;100.00
22647;BME280;11490;42.726;23.268;2022-12-31T04:12:23;96364.16;;;3.78;100.00
22647;BME280;11490;42.726;23.268;2022-12-31T04:14:49;96368.09;;;3.82;100.00
22647;BME280;11490;42.726;23.268;2022-12-31T04:17:14;96357.69;;;3.64;100.00
22647;BME280;11490;42.726;23.268;2022-12-31T04:19:40;96358.53;;;3.65;100.00
22647;BME280;11490;42.726;23.268;2022-12-31T04:22:05;96362.66;;;3.35;100.00
22647;BME280;11490;42.726;23.268;2022-12-31T04:24:31;96354.59;;;3.53;100.00
22647;BME280;11490;42.726;23.268;2022-12-31T04:26:56;96349.31;;;3.44;100.00
22647;BME280;11490;42.726;23.268;2022-12-31T04:29:22;96356.25;;;3.54;100.00
22647;BME280;11490;42.726;23.268;2022-12-31T04:31:47;96357.53;;;3.66;100.00
22647;BME280;11490;42.726;23.268;2022-12-31T04:34:13;96368.75;;;3.68;100.00
22647;BME280;11490;42.726;23.268;2022-12-31T04:36:38;96368.09;;;3.74;100.00
22647;BME280;11490;42.726;23.268;2022-12-31T04:39:03;96369.75;;;3.59;99.19
22647;BME280;11490;42.726;23.268;2022-12-31T04:41:29;96364.16;;;3.45;100.00
22647;BME280;11490;42.726;23.268;2022-12-31T04:43:56;96379.31;;;3.68;100.00
22647;BME280;11490;42.726;23.268;2022-12-31T04:46:27;96377.66;;;3.75;100.00
22647;BME280;11490;42.726;23.268;2022-12-31T04:48:53;96386.91;;;3.79;100.00
22647;BME280;11490;42.726;23.268;2022-12-31T04:51:19;96393.50;;;3.75;100.00
22647;BME280;11490;42.726;23.268;2022-12-31T04:53:45;96394.16;;;3.77;100.00
22647;BME280;11490;42.726;23.268;2022-12-31T04:56:11;96380.63;;;3.72;100.00
22647;BME280;11490;42.726;23.268;2022-12-31T04:58:37;96381.63;;;3.71;100.00
22647;BME280;11490;42.726;23.268;2022-12-31T05:01:04;96385.09;;;3.63;100.00
22647;BME280;11490;42.726;23.268;2022-12-31T05:03:30;96402.91;;;3.69;100.00
22647;BME280;11490;42.726;23.268;2022-12-31T05:06:04;96394.16;;;3.61;99.46
22647;BME280;11490;42.726;23.268;2022-12-31T05:08:30;96398.09;;;3.57;100.00
22647;BME280;11490;42.726;23.268;2022-12-31T05:10:56;96406.69;;;3.42;99.67
22647;BME280;11490;42.726;23.268;2022-12-31T05:13:22;96407.66;;;3.17;100.00
22647;BME280;11490;42.726;23.268;2022-12-31T05:15:47;96406.97;;;3.07;100.00
22647;BME280;11490;42.726;23.268;2022-12-31T05:18:13;96419.00;;;3.18;100.00
22647;BME280;11490;42.726;23.268;2022-12-31T05:20:39;96407.00;;;3.23;100.00
22647;BME280;11490;42.726;23.268;2022-12-31T05:23:04;96410.78;;;3.29;100.00
22647;BME280;11490;42.726;23.268;2022-12-31T05:25:29;96413.59;;;3.27;100.00
22647;BME280;11490;42.726;23.268;2022-12-31T05:27:55;96424.13;;;3.27;100.00
22647;BME280;11490;42.726;23.268;2022-12-31T05:30:21;96420.03;;;3.25;100.00
22647;BME280;11490;42.726;23.268;2022-12-31T05:32:46;96427.44;;;3.29;100.00
22647;BME280;11490;42.726;23.268;2022-12-31T05:35:12;96422.47;;;3.26;100.00
22647;BME280;11490;42.726;23.268;2022-12-31T05:37:37;96428.41;;;3.20;100.00
22647;BME280;11490;42.726;23.268;2022-12-31T05:40:03;96427.34;;;2.97;100.00
22647;BME280;11490;42.726;23.268;2022-12-31T05:42:29;96427.69;;;2.94;100.00
22647;BME280;11490;42.726;23.268;2022-12-31T05:44:54;96424.22;;;2.85;100.00
22647;BME280;11490;42.726;23.268;2022-12-31T05:47:20;96427.66;;;2.78;100.00
22647;BME280;11490;42.726;23.268;2022-12-31T05:49:45;96442.16;;;2.90;100.00
22647;BME280;11490;42.726;23.268;2022-12-31T05:52:11;96441.69;;;3.02;100.00
22647;BME280;11490;42.726;23.268;2022-12-31T05:54:36;96433.31;;;3.07;100.00
22647;BME280;11490;42.726;23.268;2022-12-31T05:57:05;96440.53;;;2.97;100.00
22647;BME280;11490;42.726;23.268;2022-12-31T05:59:32;96433.97;;;3.01;100.00
22647;BME280;11490;42.726;23.268;2022-12-31T06:01:58;96456.75;;;3.26;100.00
22647;BME280;11490;42.726;23.268;2022-12-31T06:04:24;96437.47;;;3.26;100.00
22647;BME280;11490;42.726;23.268;2022-12-31T06:06:49;96437.31;;;3.27;100.00
22647;BME280;11490;42.726;23.268;2022-12-31T06:09:16;96417.53;;;3.23;100.00
22647;BME280;11490;42.726;23.268;2022-12-31T06:11:42;96436.66;;;3.41;100.00
22647;BME280;11490;42.726;23.268;2022-12-31T06:14:07;96455.13;;;3.41;100.00
22647;BME280;11490;42.726;23.268;2022-12-31T06:16:33;96443.59;;;3.34;100.00
22647;BME280;11490;42.726;23.268;2022-12-31T06:18:58;96459.75;;;3.39;100.00
22647;BME280;11490;42.726;23.268;2022-12-31T06:21:24;96462.03;;;3.34;99.84
22647;BME280;11490;42.726;23.268;2022-12-31T06:23:49;96455.09;;;3.17;100.00
22647;BME280;11490;42.726;23.268;2022-12-31T06:26:15;96469.66;;;3.45;100.00
22647;BME280;11490;42.726;23.268;2022-12-31T06:28:40;96472.97;;;3.47;100.00
22647;BME280;11490;42.726;23.268;2022-12-31T06:31:09;96479.19;;;3.38;100.00
22647;BME280;11490;42.726;23.268;2022-12-31T06:33:35;96483.81;;;3.44;100.00
22647;BME280;11490;42.726;23.268;2022-12-31T06:36:04;96480.19;;;3.45;100.00
22647;BME280;11490;42.726;23.268;2022-12-31T06:38:31;96479.13;;;3.06;100.00
22647;BME280;11490;42.726;23.268;2022-12-31T06:40:56;96482.25;;;3.18;100.00
22647;BME280;11490;42.726;23.268;2022-12-31T06:43:22;96479.19;;;3.38;100.00
22647;BME280;11490;42.726;23.268;2022-12-31T06:45:47;96492.56;;;3.53;100.00
22647;BME280;11490;42.726;23.268;2022-12-31T06:48:13;96493.88;;;3.49;100.00
22647;BME280;11490;42.726;23.268;2022-12-31T06:50:39;96493.72;;;3.51;100.00
22647;BME280;11490;42.726;23.268;2022-12-31T06:53:05;96494.59;;;3.75;100.00
22647;BME280;11490;42.726;23.268;2022-12-31T06:55:31;96486.81;;;3.66;100.00
22647;BME280;11490;42.726;23.268;2022-12-31T06:57:56;96478.59;;;3.69;100.00
22647;BME280;11490;42.726;23.268;2022-12-31T07:00:22;96495.09;;;3.87;100.00
22647;BME280;11490;42.726;23.268;2022-12-31T07:03:13;96499.34;;;3.80;100.00
22647;BME280;11490;42.726;23.268;2022-12-31T07:06:09;96474.44;;;3.58;100.00
22647;BME280;11490;42.726;23.268;2022-12-31T07:08:42;96502.81;;;3.97;100.00
22647;BME280;11490;42.726;23.268;2022-12-31T07:11:19;96506.47;;;4.04;100.00
22647;BME280;11490;42.726;23.268;2022-12-31T07:17:12;96522.13;;;4.30;100.00
22647;BME280;11490;42.726;23.268;2022-12-31T07:19:48;96529.06;;;4.47;100.00
22647;BME280;11490;42.726;23.268;2022-12-31T07:22:17;96509.56;;;4.48;100.00
22647;BME280;11490;42.726;23.268;2022-12-31T07:24:43;96522.25;;;4.60;100.00
22647;BME280;11490;42.726;23.268;2022-12-31T07:27:27;96522.22;;;4.77;100.00
22647;BME280;11490;42.726;23.268;2022-12-31T07:30:08;96529.97;;;4.86;100.00
22647;BME280;11490;42.726;23.268;2022-12-31T07:35:28;96531.06;;;5.00;100.00
22647;BME280;11490;42.726;23.268;2022-12-31T07:38:28;96534.97;;;5.12;100.00
22647;BME280;11490;42.726;23.268;2022-12-31T07:47:03;96523.72;;;5.26;100.00
22647;BME280;11490;42.726;23.268;2022-12-31T07:49:31;96517.59;;;5.26;100.00
22647;BME280;11490;42.726;23.268;2022-12-31T07:51:57;96520.56;;;5.23;100.00
22647;BME280;11490;42.726;23.268;2022-12-31T07:54:23;96521.94;;;5.19;100.00
22647;BME280;11490;42.726;23.268;2022-12-31T07:56:49;96533.06;;;5.37;100.00
22647;BME280;11490;42.726;23.268;2022-12-31T08:10:12;96549.13;;;5.66;100.00
22647;BME280;11490;42.726;23.268;2022-12-31T08:12:42;96552.97;;;5.95;100.00
22647;BME280;11490;42.726;23.268;2022-12-31T08:15:13;96549.84;;;6.14;100.00
22647;BME280;11490;42.726;23.268;2022-12-31T08:17:39;96543.06;;;7.01;100.00
22647;BME280;11490;42.726;23.268;2022-12-31T08:20:05;96527.59;;;8.76;96.88
22647;BME280;11490;42.726;23.268;2022-12-31T08:30:54;96558.81;;;16.57;60.38
22647;BME280;11490;42.726;23.268;2022-12-31T08:33:39;96563.41;;;17.73;55.21
22647;BME280;11490;42.726;23.268;2022-12-31T08:49:32;96550.59;;;20.56;44.59
22647;BME280;11490;42.726;23.268;2022-12-31T08:51:59;96552.81;;;20.99;44.00
22647;BME280;11490;42.726;23.268;2022-12-31T08:54:25;96539.75;;;21.72;41.45
22647;BME280;11490;42.726;23.268;2022-12-31T08:59:32;96567.28;;;22.30;39.33
22647;BME280;11490;42.726;23.268;2022-12-31T09:02:55;96563.75;;;22.89;38.14
22647;BME280;11490;42.726;23.268;2022-12-31T09:05:55;96555.91;;;22.82;36.99
22647;BME280;11490;42.726;23.268;2022-12-31T09:19:17;96545.75;;;20.73;41.27
22647;BME280;11490;42.726;23.268;2022-12-31T09:21:43;96533.31;;;20.97;40.90
22647;BME280;11490;42.726;23.268;2022-12-31T09:24:13;96532.81;;;21.21;40.79
22647;BME280;11490;42.726;23.268;2022-12-31T09:26:43;96532.81;;;21.21;41.13
22647;BME280;11490;42.726;23.268;2022-12-31T09:37:39;96515.66;;;19.82;43.85
22647;BME280;11490;42.726;23.268;2022-12-31T09:54:49;96477.25;;;17.11;51.04
22647;BME280;11490;42.726;23.268;2022-12-31T09:59:39;96471.91;;;16.16;55.11
22647;BME280;11490;42.726;23.268;2022-12-31T10:04:45;96468.63;;;16.14;56.64
22647;BME280;11490;42.726;23.268;2022-12-31T10:26:31;96431.22;;;14.27;62.06
22647;BME280;11490;42.726;23.268;2022-12-31T10:46:02;96428.81;;;14.49;63.98
22647;BME280;11490;42.726;23.268;2022-12-31T10:52:09;96432.03;;;13.57;64.01
22647;BME280;11490;42.726;23.268;2022-12-31T11:10:19;96420.47;;;13.08;67.66
22647;BME280;11490;42.726;23.268;2022-12-31T11:30:03;96389.19;;;12.65;69.76
22647;BME280;11490;42.726;23.268;2022-12-31T11:35:29;96390.97;;;12.53;70.50
22647;BME280;11490;42.726;23.268;2022-12-31T11:38:09;96387.22;;;12.54;70.83
22647;BME280;11490;42.726;23.268;2022-12-31T11:46:25;96379.03;;;12.49;71.60
22647;BME280;11490;42.726;23.268;2022-12-31T11:49:13;96372.19;;;12.35;71.56
22647;BME280;11490;42.726;23.268;2022-12-31T11:57:26;96369.47;;;12.60;71.94
22647;BME280;11490;42.726;23.268;2022-12-31T11:59:56;96375.56;;;12.67;71.50
22647;BME280;11490;42.726;23.268;2022-12-31T12:02:33;96366.88;;;12.71;71.95
22647;BME280;11490;42.726;23.268;2022-12-31T12:05:01;96381.00;;;12.60;71.30
22647;BME280;11490;42.726;23.268;2022-12-31T12:07:28;96365.53;;;12.62;71.88
22647;BME280;11490;42.726;23.268;2022-12-31T12:09:57;96381.28;;;12.70;71.75
22647;BME280;11490;42.726;23.268;2022-12-31T12:12:22;96369.47;;;12.60;71.11
22647;BME280;11490;42.726;23.268;2022-12-31T12:14:51;96354.88;;;12.38;71.99
22647;BME280;11490;42.726;23.268;2022-12-31T12:17:28;96372.75;;;12.62;71.81
22647;BME280;11490;42.726;23.268;2022-12-31T12:20:09;96379.97;;;12.80;72.15
22647;BME280;11490;42.726;23.268;2022-12-31T12:22:48;96378.31;;;12.79;71.85
22647;BME280;11490;42.726;23.268;2022-12-31T12:25:22;96363.91;;;12.61;71.28
22647;BME280;11490;42.726;23.268;2022-12-31T12:27:48;96367.75;;;12.65;72.25
22647;BME280;11490;42.726;23.268;2022-12-31T12:32:54;96375.81;;;12.84;71.93
22647;BME280;11490;42.726;23.268;2022-12-31T12:35:29;96375.34;;;12.87;71.43
22647;BME280;11490;42.726;23.268;2022-12-31T12:38:04;96361.81;;;12.82;71.58
22647;BME280;11490;42.726;23.268;2022-12-31T12:40:31;96378.63;;;12.89;71.56
22647;BME280;11490;42.726;23.268;2022-12-31T12:42:57;96380.28;;;12.90;71.37
22647;BME280;11490;42.726;23.268;2022-12-31T12:45:25;96364.78;;;12.73;71.96
22647;BME280;11490;42.726;23.268;2022-12-31T12:47:57;96378.03;;;12.87;72.02
22647;BME280;11490;42.726;23.268;2022-12-31T12:50:31;96379.84;;;12.93;72.49
22647;BME280;11490;42.726;23.268;2022-12-31T12:59:02;96376.56;;;12.91;72.57
22647;BME280;11490;42.726;23.268;2022-12-31T13:10:12;96396.66;;;13.00;73.40
22647;BME280;11490;42.726;23.268;2022-12-31T13:12:45;96389.34;;;12.89;74.15
22647;BME280;11490;42.726;23.268;2022-12-31T13:17:56;96393.81;;;12.95;73.69
22647;BME280;11490;42.726;23.268;2022-12-31T13:20:44;96393.81;;;12.95;74.26
22647;BME280;11490;42.726;23.268;2022-12-31T13:23:35;96390.09;;;12.96;73.98
22647;BME280;11490;42.726;23.268;2022-12-31T13:28:35;96404.13;;;13.16;73.22
22647;BME280;11490;42.726;23.268;2022-12-31T13:31:08;96407.22;;;13.13;73.21
22647;BME280;11490;42.726;23.268;2022-12-31T13:33:44;96397.97;;;13.09;73.53
22647;BME280;11490;42.726;23.268;2022-12-31T13:36:23;96401.88;;;13.13;73.39
22647;BME280;11490;42.726;23.268;2022-12-31T13:38:52;96396.91;;;13.10;73.32
22647;BME280;11490;42.726;23.268;2022-12-31T13:44:02;96402.28;;;13.10;73.14
22647;BME280;11490;42.726;23.268;2022-12-31T13:49:02;96411.38;;;13.45;73.03
22647;BME280;11490;42.726;23.268;2022-12-31T13:51:39;96398.09;;;13.51;71.73
22647;BME280;11490;42.726;23.268;2022-12-31T13:54:21;96405.28;;;13.38;73.14
22647;BME280;11490;42.726;23.268;2022-12-31T13:57:01;96395.75;;;13.24;73.72
22647;BME280;11490;42.726;23.268;2022-12-31T13:59:35;96396.06;;;13.16;73.17
22647;BME280;11490;42.726;23.268;2022-12-31T14:02:43;96408.78;;;13.21;73.92
22647;BME280;11490;42.726;23.268;2022-12-31T14:07:57;96405.72;;;12.99;74.71
22647;BME280;11490;42.726;23.268;2022-12-31T14:10:46;96409.59;;;12.85;75.75
22647;BME280;11490;42.726;23.268;2022-12-31T14:13:30;96407.47;;;12.87;75.62
22647;BME280;11490;42.726;23.268;2022-12-31T14:16:18;96403.31;;;12.72;76.13
22647;BME280;11490;42.726;23.268;2022-12-31T14:21:29;96403.28;;;12.54;77.27
22647;BME280;11490;42.726;23.268;2022-12-31T14:24:05;96395.56;;;12.46;77.72
22647;BME280;11490;42.726;23.268;2022-12-31T14:26:39;96397.91;;;12.36;78.13
22647;BME280;11490;42.726;23.268;2022-12-31T14:29:25;96385.06;;;12.20;78.46
22647;BME280;11490;42.726;23.268;2022-12-31T14:34:39;96393.78;;;12.09;79.52
22647;BME280;11490;42.726;23.268;2022-12-31T14:45:53;96384.78;;;11.72;79.84
22647;BME280;11490;42.726;23.268;2022-12-31T14:48:36;96395.09;;;11.68;80.33
22647;BME280;11490;42.726;23.268;2022-12-31T14:51:04;96407.25;;;11.64;80.48
22647;BME280;11490;42.726;23.268;2022-12-31T14:53:31;96403.78;;;11.57;80.78
22647;BME280;11490;42.726;23.268;2022-12-31T14:56:23;96378.19;;;11.43;80.87
22647;BME280;11490;42.726;23.268;2022-12-31T14:59:23;96401.16;;;11.50;81.04
22647;BME280;11490;42.726;23.268;2022-12-31T15:01:49;96415.59;;;11.43;81.07
22647;BME280;11490;42.726;23.268;2022-12-31T15:04:14;96396.75;;;11.25;81.09
22647;BME280;11490;42.726;23.268;2022-12-31T15:07:08;96411.19;;;11.10;82.68
22647;BME280;11490;42.726;23.268;2022-12-31T15:15:08;96416.19;;;10.94;82.90
22647;BME280;11490;42.726;23.268;2022-12-31T15:23:21;96422.63;;;10.66;83.66
22647;BME280;11490;42.726;23.268;2022-12-31T15:25:49;96441.69;;;10.70;84.14
22647;BME280;11490;42.726;23.268;2022-12-31T15:28:37;96432.50;;;10.59;84.23
22647;BME280;11490;42.726;23.268;2022-12-31T15:33:40;96433.94;;;10.35;86.13
22647;BME280;11490;42.726;23.268;2022-12-31T15:36:18;96447.06;;;10.44;85.64
22647;BME280;11490;42.726;23.268;2022-12-31T15:38:44;96439.66;;;10.06;86.25
22647;BME280;11490;42.726;23.268;2022-12-31T15:46:15;96434.09;;;10.01;87.68
22647;BME280;11490;42.726;23.268;2022-12-31T15:48:47;96438.59;;;9.87;88.29
22647;BME280;11490;42.726;23.268;2022-12-31T15:51:21;96436.09;;;9.59;89.31
22647;BME280;11490;42.726;23.268;2022-12-31T15:53:52;96442.03;;;9.61;89.94
22647;BME280;11490;42.726;23.268;2022-12-31T15:56:33;96460.47;;;9.70;89.36
22647;BME280;11490;42.726;23.268;2022-12-31T15:59:04;96457.25;;;9.74;89.24
22647;BME280;11490;42.726;23.268;2022-12-31T16:01:35;96465.44;;;9.86;88.63
22647;BME280;11490;42.726;23.268;2022-12-31T16:04:27;96454.34;;;9.76;88.04
22647;BME280;11490;42.726;23.268;2022-12-31T16:06:58;96471.19;;;9.83;87.66
22647;BME280;11490;42.726;23.268;2022-12-31T16:09:30;96475.44;;;9.71;87.81
22647;BME280;11490;42.726;23.268;2022-12-31T16:11:59;96481.78;;;9.63;88.72
22647;BME280;11490;42.726;23.268;2022-12-31T16:14:36;96481.19;;;9.68;88.16
22647;BME280;11490;42.726;23.268;2022-12-31T16:17:03;96487.06;;;9.43;88.19
22647;BME280;11490;42.726;23.268;2022-12-31T16:19:42;96491.00;;;9.13;89.85
22647;BME280;11490;42.726;23.268;2022-12-31T16:22:36;96498.13;;;8.71;92.07
22647;BME280;11490;42.726;23.268;2022-12-31T16:25:04;96504.63;;;8.97;91.46
22647;BME280;11490;42.726;23.268;2022-12-31T16:27:30;96506.13;;;9.06;90.67
22647;BME280;11490;42.726;23.268;2022-12-31T16:29:59;96501.97;;;8.97;89.60
22647;BME280;11490;42.726;23.268;2022-12-31T16:32:33;96501.88;;;8.83;89.20
22647;BME280;11490;42.726;23.268;2022-12-31T16:34:58;96509.09;;;8.62;89.80
22647;BME280;11490;42.726;23.268;2022-12-31T16:37:24;96513.88;;;8.45;92.14
22647;BME280;11490;42.726;23.268;2022-12-31T16:42:24;96530.28;;;8.48;93.37
22647;BME280;11490;42.726;23.268;2022-12-31T16:44:51;96528.31;;;8.36;92.45
22647;BME280;11490;42.726;23.268;2022-12-31T16:47:35;96531.47;;;8.46;93.01
22647;BME280;11490;42.726;23.268;2022-12-31T16:50:12;96527.06;;;8.32;93.92
22647;BME280;11490;42.726;23.268;2022-12-31T16:52:44;96534.47;;;8.22;92.74
22647;BME280;11490;42.726;23.268;2022-12-31T16:55:23;96521.06;;;7.87;93.76
22647;BME280;11490;42.726;23.268;2022-12-31T16:57:55;96527.72;;;7.62;96.84
22647;BME280;11490;42.726;23.268;2022-12-31T17:00:23;96534.75;;;7.69;97.54
22647;BME280;11490;42.726;23.268;2022-12-31T17:05:25;96532.94;;;7.91;96.67
22647;BME280;11490;42.726;23.268;2022-12-31T17:07:51;96542.09;;;8.03;94.41
22647;BME280;11490;42.726;23.268;2022-12-31T17:12:46;96558.50;;;7.92;93.64
22647;BME280;11490;42.726;23.268;2022-12-31T17:15:20;96560.25;;;7.64;95.99
22647;BME280;11490;42.726;23.268;2022-12-31T17:17:50;96552.84;;;7.45;96.87
22647;BME280;11490;42.726;23.268;2022-12-31T17:20:24;96557.44;;;7.21;99.27
22647;BME280;11490;42.726;23.268;2022-12-31T17:22:53;96549.75;;;7.26;98.34
22647;BME280;11490;42.726;23.268;2022-12-31T17:25:23;96554.06;;;7.42;98.10
22647;BME280;11490;42.726;23.268;2022-12-31T17:33:27;96556.69;;;7.57;97.28
22647;BME280;11490;42.726;23.268;2022-12-31T17:36:12;96554.19;;;7.70;95.58
22647;BME280;11490;42.726;23.268;2022-12-31T17:38:38;96545.84;;;7.73;94.78
22647;BME280;11490;42.726;23.268;2022-12-31T17:43:39;96560.25;;;7.49;96.98
22647;BME280;11490;42.726;23.268;2022-12-31T17:46:15;96569.47;;;7.68;95.30
22647;BME280;11490;42.726;23.268;2022-12-31T17:48:41;96567.94;;;7.44;94.30
22647;BME280;11490;42.726;23.268;2022-12-31T17:51:08;96562.34;;;7.54;95.10
22647;BME280;11490;42.726;23.268;2022-12-31T17:53:33;96562.94;;;7.34;94.93